sensor_id;sensor_type;location;lat;lon;timestamp;P1;durP1;ratioP1;P2;durP2;ratioP2
17784;SDS011;9016;53.582;10.062;2022-09-30T00:01:33;5.87;;;5.37;;
17784;SDS011;9016;53.582;10.062;2022-09-30T00:04:02;6.30;;;5.67;;
17784;SDS011;9016;53.582;10.062;2022-09-30T00:06:30;5.90;;;5.30;;
17784;SDS011;9016;53.582;10.062;2022-09-30T00:09:00;6.43;;;5.83;;
17784;SDS011;9016;53.582;10.062;2022-09-30T00:11:29;6.27;;;5.67;;
17784;SDS011;9016;53.582;10.062;2022-09-30T00:13:59;6.97;;;5.73;;
17784;SDS011;9016;53.582;10.062;2022-09-30T00:16:30;5.97;;;5.37;;
17784;SDS011;9016;53.582;10.062;2022-09-30T00:19:02;6.83;;;5.93;;
17784;SDS011;9016;53.582;10.062;2022-09-30T00:21:31;6.83;;;6.10;;
17784;SDS011;9016;53.582;10.062;2022-09-30T00:24:00;6.20;;;5.60;;
17784;SDS011;9016;53.582;10.062;2022-09-30T00:26:29;6.20;;;5.60;;
17784;SDS011;9016;53.582;10.062;2022-09-30T00:28:58;6.27;;;5.67;;
17784;SDS011;9016;53.582;10.062;2022-09-30T00:31:28;6.23;;;5.57;;
17784;SDS011;9016;53.582;10.062;2022-09-30T00:34:00;5.50;;;5.00;;
17784;SDS011;9016;53.582;10.062;2022-09-30T00:36:35;6.17;;;5.50;;
17784;SDS011;9016;53.582;10.062;2022-09-30T00:39:06;6.20;;;5.57;;
17784;SDS011;9016;53.582;10.062;2022-09-30T00:41:35;5.97;;;5.40;;
17784;SDS011;9016;53.582;10.062;2022-09-30T00:47:18;6.03;;;5.50;;
17784;SDS011;9016;53.582;10.062;2022-09-30T00:50:04;6.33;;;5.57;;
17784;SDS011;9016;53.582;10.062;2022-09-30T00:52:38;6.23;;;5.63;;
17784;SDS011;9016;53.582;10.062;2022-09-30T00:55:09;5.97;;;5.37;;
17784;SDS011;9016;53.582;10.062;2022-09-30T00:57:49;5.90;;;5.30;;
17784;SDS011;9016;53.582;10.062;2022-09-30T01:00:18;5.63;;;5.13;;
17784;SDS011;9016;53.582;10.062;2022-09-30T01:02:47;6.20;;;5.60;;
17784;SDS011;9016;53.582;10.062;2022-09-30T01:05:16;5.67;;;5.17;;
17784;SDS011;9016;53.582;10.062;2022-09-30T01:07:45;6.07;;;5.47;;
17784;SDS011;9016;53.582;10.062;2022-09-30T01:10:14;6.03;;;5.53;;
17784;SDS011;9016;53.582;10.062;2022-09-30T01:12:42;7.70;;;5.93;;
17784;SDS011;9016;53.582;10.062;2022-09-30T01:15:10;6.63;;;5.90;;
17784;SDS011;9016;53.582;10.062;2022-09-30T01:17:41;6.67;;;5.77;;
17784;SDS011;9016;53.582;10.062;2022-09-30T01:20:33;7.30;;;5.80;;
17784;SDS011;9016;53.582;10.062;2022-09-30T01:26:47;6.60;;;6.00;;
17784;SDS011;9016;53.582;10.062;2022-09-30T01:29:27;6.60;;;6.00;;
17784;SDS011;9016;53.582;10.062;2022-09-30T01:32:23;6.83;;;6.13;;
17784;SDS011;9016;53.582;10.062;2022-09-30T01:35:06;7.10;;;6.40;;
17784;SDS011;9016;53.582;10.062;2022-09-30T01:37:43;7.00;;;6.30;;
17784;SDS011;9016;53.582;10.062;2022-09-30T01:40:21;6.60;;;6.00;;
17784;SDS011;9016;53.582;10.062;2022-09-30T01:42:58;6.37;;;5.77;;
17784;SDS011;9016;53.582;10.062;2022-09-30T01:45:36;7.00;;;6.30;;
17784;SDS011;9016;53.582;10.062;2022-09-30T01:48:14;6.70;;;6.10;;
17784;SDS011;9016;53.582;10.062;2022-09-30T01:50:49;7.03;;;6.33;;
17784;SDS011;9016;53.582;10.062;2022-09-30T01:53:23;6.90;;;6.20;;
17784;SDS011;9016;53.582;10.062;2022-09-30T01:55:59;7.10;;;6.40;;
17784;SDS011;9016;53.582;10.062;2022-09-30T01:58:33;7.90;;;6.63;;
17784;SDS011;9016;53.582;10.062;2022-09-30T02:01:07;7.33;;;6.57;;
17784;SDS011;9016;53.582;10.062;2022-09-30T02:03:43;7.10;;;6.30;;
17784;SDS011;9016;53.582;10.062;2022-09-30T02:06:16;7.17;;;6.57;;
17784;SDS011;9016;53.582;10.062;2022-09-30T02:08:49;7.37;;;6.60;;
17784;SDS011;9016;53.582;10.062;2022-09-30T02:11:22;9.23;;;6.63;;
17784;SDS011;9016;53.582;10.062;2022-09-30T02:13:55;8.37;;;7.57;;
17784;SDS011;9016;53.582;10.062;2022-09-30T02:16:30;8.13;;;7.33;;
17784;SDS011;9016;53.582;10.062;2022-09-30T02:19:10;8.63;;;7.83;;
17784;SDS011;9016;53.582;10.062;2022-09-30T02:21:47;8.77;;;7.87;;
17784;SDS011;9016;53.582;10.062;2022-09-30T02:24:20;7.97;;;7.23;;
17784;SDS011;9016;53.582;10.062;2022-09-30T02:26:50;9.07;;;8.23;;
17784;SDS011;9016;53.582;10.062;2022-09-30T02:29:22;9.40;;;7.90;;
17784;SDS011;9016;53.582;10.062;2022-09-30T02:31:56;10.27;;;8.20;;
17784;SDS011;9016;53.582;10.062;2022-09-30T02:34:30;9.47;;;8.47;;
17784;SDS011;9016;53.582;10.062;2022-09-30T02:37:04;9.33;;;8.53;;
17784;SDS011;9016;53.582;10.062;2022-09-30T02:39:38;9.27;;;8.40;;
17784;SDS011;9016;53.582;10.062;2022-09-30T02:42:10;9.30;;;8.43;;
17784;SDS011;9016;53.582;10.062;2022-09-30T02:44:41;8.47;;;7.67;;
17784;SDS011;9016;53.582;10.062;2022-09-30T02:47:10;9.27;;;8.37;;
17784;SDS011;9016;53.582;10.062;2022-09-30T02:49:45;9.30;;;8.40;;
17784;SDS011;9016;53.582;10.062;2022-09-30T02:52:20;9.20;;;8.30;;
17784;SDS011;9016;53.582;10.062;2022-09-30T02:54:57;9.83;;;8.93;;
17784;SDS011;9016;53.582;10.062;2022-09-30T02:57:37;10.47;;;8.73;;
17784;SDS011;9016;53.582;10.062;2022-09-30T03:00:14;9.27;;;8.47;;
17784;SDS011;9016;53.582;10.062;2022-09-30T03:02:42;9.13;;;8.23;;
17784;SDS011;9016;53.582;10.062;2022-09-30T03:05:11;10.43;;;9.00;;
17784;SDS011;9016;53.582;10.062;2022-09-30T03:07:40;9.97;;;8.97;;
17784;SDS011;9016;53.582;10.062;2022-09-30T03:10:11;8.87;;;7.97;;
17784;SDS011;9016;53.582;10.062;2022-09-30T03:12:44;9.03;;;8.23;;
17784;SDS011;9016;53.582;10.062;2022-09-30T03:15:29;9.57;;;8.53;;
17784;SDS011;9016;53.582;10.062;2022-09-30T03:18:11;8.70;;;7.90;;
17784;SDS011;9016;53.582;10.062;2022-09-30T03:21:04;9.10;;;8.13;;
17784;SDS011;9016;53.582;10.062;2022-09-30T03:26:35;9.20;;;8.20;;
17784;SDS011;9016;53.582;10.062;2022-09-30T03:29:09;9.73;;;8.63;;
17784;SDS011;9016;53.582;10.062;2022-09-30T03:31:43;9.17;;;8.17;;
17784;SDS011;9016;53.582;10.062;2022-09-30T03:34:20;8.40;;;7.60;;
17784;SDS011;9016;53.582;10.062;2022-09-30T03:36:59;8.70;;;7.90;;
17784;SDS011;9016;53.582;10.062;2022-09-30T03:39:36;9.30;;;8.40;;
17784;SDS011;9016;53.582;10.062;2022-09-30T03:42:17;8.70;;;7.77;;
17784;SDS011;9016;53.582;10.062;2022-09-30T03:44:54;8.60;;;7.63;;
17784;SDS011;9016;53.582;10.062;2022-09-30T03:47:27;8.57;;;7.77;;
17784;SDS011;9016;53.582;10.062;2022-09-30T03:49:59;8.93;;;8.03;;
17784;SDS011;9016;53.582;10.062;2022-09-30T03:52:33;9.53;;;8.43;;
17784;SDS011;9016;53.582;10.062;2022-09-30T03:55:02;9.47;;;8.47;;
17784;SDS011;9016;53.582;10.062;2022-09-30T03:57:33;9.03;;;8.23;;
17784;SDS011;9016;53.582;10.062;2022-09-30T04:00:01;9.33;;;8.30;;
17784;SDS011;9016;53.582;10.062;2022-09-30T04:02:32;9.10;;;8.20;;
17784;SDS011;9016;53.582;10.062;2022-09-30T04:05:01;9.00;;;8.20;;
17784;SDS011;9016;53.582;10.062;2022-09-30T04:07:29;9.67;;;8.67;;
17784;SDS011;9016;53.582;10.062;2022-09-30T04:09:59;10.33;;;9.23;;
17784;SDS011;9016;53.582;10.062;2022-09-30T04:12:27;9.30;;;8.40;;
17784;SDS011;9016;53.582;10.062;2022-09-30T04:14:55;11.20;;;10.03;;
17784;SDS011;9016;53.582;10.062;2022-09-30T04:17:22;10.57;;;9.43;;
17784;SDS011;9016;53.582;10.062;2022-09-30T04:19:50;10.40;;;9.40;;
17784;SDS011;9016;53.582;10.062;2022-09-30T04:22:18;10.70;;;9.13;;
17784;SDS011;9016;53.582;10.062;2022-09-30T04:24:51;10.27;;;9.27;;
17784;SDS011;9016;53.582;10.062;2022-09-30T04:27:21;10.10;;;9.00;;
17784;SDS011;9016;53.582;10.062;2022-09-30T04:29:48;9.83;;;8.90;;
17784;SDS011;9016;53.582;10.062;2022-09-30T04:32:16;11.87;;;10.67;;
17784;SDS011;9016;53.582;10.062;2022-09-30T04:34:44;11.63;;;9.13;;
17784;SDS011;9016;53.582;10.062;2022-09-30T04:37:12;10.27;;;9.33;;
17784;SDS011;9016;53.582;10.062;2022-09-30T04:39:41;11.27;;;9.60;;
17784;SDS011;9016;53.582;10.062;2022-09-30T04:42:09;11.37;;;9.73;;
17784;SDS011;9016;53.582;10.062;2022-09-30T04:44:39;11.40;;;10.20;;
17784;SDS011;9016;53.582;10.062;2022-09-30T04:47:07;11.60;;;10.20;;
17784;SDS011;9016;53.582;10.062;2022-09-30T04:51:50;12.27;;;9.77;;
17784;SDS011;9016;53.582;10.062;2022-09-30T04:54:18;11.47;;;10.27;;
17784;SDS011;9016;53.582;10.062;2022-09-30T04:56:46;13.13;;;9.73;;
17784;SDS011;9016;53.582;10.062;2022-09-30T04:59:14;10.80;;;9.77;;
17784;SDS011;9016;53.582;10.062;2022-09-30T05:01:41;11.67;;;9.70;;
17784;SDS011;9016;53.582;10.062;2022-09-30T05:04:10;12.03;;;10.03;;
17784;SDS011;9016;53.582;10.062;2022-09-30T05:06:38;13.27;;;10.07;;
17784;SDS011;9016;53.582;10.062;2022-09-30T05:09:08;10.13;;;9.17;;
17784;SDS011;9016;53.582;10.062;2022-09-30T05:11:36;9.97;;;9.00;;
17784;SDS011;9016;53.582;10.062;2022-09-30T05:14:06;10.10;;;9.13;;
17784;SDS011;9016;53.582;10.062;2022-09-30T05:16:35;10.40;;;9.40;;
17784;SDS011;9016;53.582;10.062;2022-09-30T05:19:03;9.77;;;8.87;;
17784;SDS011;9016;53.582;10.062;2022-09-30T05:21:31;10.47;;;9.47;;
17784;SDS011;9016;53.582;10.062;2022-09-30T05:23:59;12.13;;;9.43;;
17784;SDS011;9016;53.582;10.062;2022-09-30T05:26:29;13.27;;;10.40;;
17784;SDS011;9016;53.582;10.062;2022-09-30T05:28:58;12.03;;;10.33;;
17784;SDS011;9016;53.582;10.062;2022-09-30T05:31:26;14.27;;;10.20;;
17784;SDS011;9016;53.582;10.062;2022-09-30T05:33:54;12.63;;;10.80;;
17784;SDS011;9016;53.582;10.062;2022-09-30T05:36:23;11.07;;;9.97;;
17784;SDS011;9016;53.582;10.062;2022-09-30T05:38:51;10.30;;;9.30;;
17784;SDS011;9016;53.582;10.062;2022-09-30T05:41:20;10.77;;;9.67;;
17784;SDS011;9016;53.582;10.062;2022-09-30T05:43:51;13.67;;;10.43;;
17784;SDS011;9016;53.582;10.062;2022-09-30T05:46:19;12.87;;;10.57;;
17784;SDS011;9016;53.582;10.062;2022-09-30T05:48:47;12.50;;;10.43;;
17784;SDS011;9016;53.582;10.062;2022-09-30T05:51:15;11.37;;;10.27;;
17784;SDS011;9016;53.582;10.062;2022-09-30T05:53:43;12.67;;;10.77;;
17784;SDS011;9016;53.582;10.062;2022-09-30T05:56:11;12.33;;;10.20;;
17784;SDS011;9016;53.582;10.062;2022-09-30T05:58:39;11.40;;;10.30;;
17784;SDS011;9016;53.582;10.062;2022-09-30T06:01:09;14.30;;;11.23;;
17784;SDS011;9016;53.582;10.062;2022-09-30T06:03:41;12.03;;;10.70;;
17784;SDS011;9016;53.582;10.062;2022-09-30T06:06:10;12.17;;;10.87;;
17784;SDS011;9016;53.582;10.062;2022-09-30T06:08:38;12.17;;;10.80;;
17784;SDS011;9016;53.582;10.062;2022-09-30T06:11:07;15.20;;;11.40;;
17784;SDS011;9016;53.582;10.062;2022-09-30T06:13:38;14.07;;;10.90;;
17784;SDS011;9016;53.582;10.062;2022-09-30T06:16:09;12.07;;;10.87;;
17784;SDS011;9016;53.582;10.062;2022-09-30T06:18:39;23.60;;;15.40;;
17784;SDS011;9016;53.582;10.062;2022-09-30T06:21:08;15.60;;;12.20;;
17784;SDS011;9016;53.582;10.062;2022-09-30T06:23:37;12.67;;;11.30;;
17784;SDS011;9016;53.582;10.062;2022-09-30T06:26:06;16.00;;;12.33;;
17784;SDS011;9016;53.582;10.062;2022-09-30T06:28:37;12.63;;;11.20;;
17784;SDS011;9016;53.582;10.062;2022-09-30T06:31:05;15.73;;;12.20;;
17784;SDS011;9016;53.582;10.062;2022-09-30T06:33:35;15.97;;;11.40;;
17784;SDS011;9016;53.582;10.062;2022-09-30T06:36:03;12.43;;;11.13;;
17784;SDS011;9016;53.582;10.062;2022-09-30T06:38:32;12.50;;;11.00;;
17784;SDS011;9016;53.582;10.062;2022-09-30T06:41:02;17.97;;;12.00;;
17784;SDS011;9016;53.582;10.062;2022-09-30T06:43:31;13.50;;;12.17;;
17784;SDS011;9016;53.582;10.062;2022-09-30T06:46:15;14.20;;;10.63;;
17784;SDS011;9016;53.582;10.062;2022-09-30T06:48:57;13.20;;;11.93;;
17784;SDS011;9016;53.582;10.062;2022-09-30T06:51:38;13.50;;;10.43;;
17784;SDS011;9016;53.582;10.062;2022-09-30T06:54:06;12.87;;;11.43;;
17784;SDS011;9016;53.582;10.062;2022-09-30T06:56:34;15.07;;;12.53;;
17784;SDS011;9016;53.582;10.062;2022-09-30T06:59:03;11.70;;;10.43;;
17784;SDS011;9016;53.582;10.062;2022-09-30T07:01:31;13.00;;;11.40;;
17784;SDS011;9016;53.582;10.062;2022-09-30T07:04:00;11.63;;;10.43;;
17784;SDS011;9016;53.582;10.062;2022-09-30T07:06:34;12.77;;;10.23;;
17784;SDS011;9016;53.582;10.062;2022-09-30T07:09:04;13.17;;;11.70;;
17784;SDS011;9016;53.582;10.062;2022-09-30T07:11:33;13.33;;;11.30;;
17784;SDS011;9016;53.582;10.062;2022-09-30T07:14:02;14.00;;;12.50;;
17784;SDS011;9016;53.582;10.062;2022-09-30T07:16:31;12.60;;;11.30;;
17784;SDS011;9016;53.582;10.062;2022-09-30T07:19:01;11.93;;;10.47;;
17784;SDS011;9016;53.582;10.062;2022-09-30T07:21:31;12.70;;;9.63;;
17784;SDS011;9016;53.582;10.062;2022-09-30T07:23:59;11.33;;;10.13;;
17784;SDS011;9016;53.582;10.062;2022-09-30T07:26:27;10.57;;;9.53;;
17784;SDS011;9016;53.582;10.062;2022-09-30T07:28:56;13.07;;;11.77;;
17784;SDS011;9016;53.582;10.062;2022-09-30T07:31:25;11.27;;;10.03;;
17784;SDS011;9016;53.582;10.062;2022-09-30T07:33:58;14.93;;;11.73;;
17784;SDS011;9016;53.582;10.062;2022-09-30T07:36:28;11.20;;;10.10;;
17784;SDS011;9016;53.582;10.062;2022-09-30T07:38:59;11.40;;;9.27;;
17784;SDS011;9016;53.582;10.062;2022-09-30T07:41:32;10.43;;;9.20;;
17784;SDS011;9016;53.582;10.062;2022-09-30T07:44:03;11.40;;;9.47;;
17784;SDS011;9016;53.582;10.062;2022-09-30T07:46:33;11.07;;;9.37;;
17784;SDS011;9016;53.582;10.062;2022-09-30T07:49:04;10.87;;;9.77;;
17784;SDS011;9016;53.582;10.062;2022-09-30T07:51:37;9.70;;;8.77;;
17784;SDS011;9016;53.582;10.062;2022-09-30T07:54:07;9.90;;;8.90;;
17784;SDS011;9016;53.582;10.062;2022-09-30T07:56:37;10.93;;;9.40;;
17784;SDS011;9016;53.582;10.062;2022-09-30T07:59:27;10.17;;;8.60;;
17784;SDS011;9016;53.582;10.062;2022-09-30T08:01:57;11.60;;;8.93;;
17784;SDS011;9016;53.582;10.062;2022-09-30T08:04:25;10.40;;;8.53;;
17784;SDS011;9016;53.582;10.062;2022-09-30T08:06:55;9.13;;;8.30;;
17784;SDS011;9016;53.582;10.062;2022-09-30T08:09:26;8.87;;;7.70;;
17784;SDS011;9016;53.582;10.062;2022-09-30T08:11:55;9.53;;;8.50;;
17784;SDS011;9016;53.582;10.062;2022-09-30T08:14:24;9.97;;;7.93;;
17784;SDS011;9016;53.582;10.062;2022-09-30T08:16:53;9.90;;;8.43;;
17784;SDS011;9016;53.582;10.062;2022-09-30T08:19:23;8.57;;;7.70;;
17784;SDS011;9016;53.582;10.062;2022-09-30T08:21:53;9.30;;;8.37;;
17784;SDS011;9016;53.582;10.062;2022-09-30T08:24:23;10.97;;;8.60;;
17784;SDS011;9016;53.582;10.062;2022-09-30T08:26:52;8.70;;;7.87;;
17784;SDS011;9016;53.582;10.062;2022-09-30T08:29:21;9.80;;;8.77;;
17784;SDS011;9016;53.582;10.062;2022-09-30T08:32:09;10.30;;;8.67;;
17784;SDS011;9016;53.582;10.062;2022-09-30T08:34:37;8.60;;;7.83;;
17784;SDS011;9016;53.582;10.062;2022-09-30T08:37:05;7.87;;;7.07;;
17784;SDS011;9016;53.582;10.062;2022-09-30T08:39:37;6.78;;;6.18;;
17784;SDS011;9016;53.582;10.062;2022-09-30T08:42:09;7.63;;;6.93;;
17784;SDS011;9016;53.582;10.062;2022-09-30T08:45:16;7.65;;;6.20;;
17784;SDS011;9016;53.582;10.062;2022-09-30T08:47:55;6.75;;;6.07;;
17784;SDS011;9016;53.582;10.062;2022-09-30T08:50:29;6.20;;;5.40;;
17784;SDS011;9016;53.582;10.062;2022-09-30T08:53:07;6.50;;;5.90;;
17784;SDS011;9016;53.582;10.062;2022-09-30T08:55:39;5.75;;;5.18;;
17784;SDS011;9016;53.582;10.062;2022-09-30T08:58:14;7.07;;;4.43;;
17784;SDS011;9016;53.582;10.062;2022-09-30T09:00:49;5.75;;;3.90;;
17784;SDS011;9016;53.582;10.062;2022-09-30T09:03:19;8.77;;;5.90;;
17784;SDS011;9016;53.582;10.062;2022-09-30T09:05:50;4.90;;;4.40;;
17784;SDS011;9016;53.582;10.062;2022-09-30T09:08:28;3.35;;;3.05;;
17784;SDS011;9016;53.582;10.062;2022-09-30T09:11:08;3.08;;;2.58;;
17784;SDS011;9016;53.582;10.062;2022-09-30T09:13:43;3.88;;;2.80;;
17784;SDS011;9016;53.582;10.062;2022-09-30T09:16:20;4.85;;;2.72;;
17784;SDS011;9016;53.582;10.062;2022-09-30T09:18:57;2.85;;;2.60;;
17784;SDS011;9016;53.582;10.062;2022-09-30T09:21:33;4.18;;;3.40;;
17784;SDS011;9016;53.582;10.062;2022-09-30T09:24:14;3.53;;;2.90;;
17784;SDS011;9016;53.582;10.062;2022-09-30T09:26:46;4.28;;;3.78;;
17784;SDS011;9016;53.582;10.062;2022-09-30T09:29:19;4.22;;;2.50;;
17784;SDS011;9016;53.582;10.062;2022-09-30T09:31:54;2.60;;;2.40;;
17784;SDS011;9016;53.582;10.062;2022-09-30T09:34:23;3.30;;;2.20;;
17784;SDS011;9016;53.582;10.062;2022-09-30T09:36:56;3.27;;;2.40;;
17784;SDS011;9016;53.582;10.062;2022-09-30T09:45:30;4.03;;;2.80;;
17784;SDS011;9016;53.582;10.062;2022-09-30T09:48:06;2.90;;;2.50;;
17784;SDS011;9016;53.582;10.062;2022-09-30T09:50:36;3.23;;;2.57;;
17784;SDS011;9016;53.582;10.062;2022-09-30T09:53:15;2.77;;;2.50;;
17784;SDS011;9016;53.582;10.062;2022-09-30T09:55:56;3.13;;;2.60;;
17784;SDS011;9016;53.582;10.062;2022-09-30T09:58:27;4.93;;;2.40;;
17784;SDS011;9016;53.582;10.062;2022-09-30T10:01:03;3.03;;;2.30;;
17784;SDS011;9016;53.582;10.062;2022-09-30T10:04:07;2.50;;;2.30;;
17784;SDS011;9016;53.582;10.062;2022-09-30T10:06:42;2.87;;;2.23;;
17784;SDS011;9016;53.582;10.062;2022-09-30T10:09:22;5.70;;;4.10;;
17784;SDS011;9016;53.582;10.062;2022-09-30T10:15:01;2.40;;;2.10;;
17784;SDS011;9016;53.582;10.062;2022-09-30T10:17:37;2.77;;;2.00;;
17784;SDS011;9016;53.582;10.062;2022-09-30T10:20:07;2.63;;;2.20;;
17784;SDS011;9016;53.582;10.062;2022-09-30T10:22:46;2.93;;;2.60;;
17784;SDS011;9016;53.582;10.062;2022-09-30T10:25:19;3.87;;;2.80;;
17784;SDS011;9016;53.582;10.062;2022-09-30T10:27:51;4.60;;;3.50;;
17784;SDS011;9016;53.582;10.062;2022-09-30T10:30:33;6.30;;;3.73;;
17784;SDS011;9016;53.582;10.062;2022-09-30T10:33:13;4.10;;;3.10;;
17784;SDS011;9016;53.582;10.062;2022-09-30T10:36:01;3.70;;;2.80;;
17784;SDS011;9016;53.582;10.062;2022-09-30T10:38:32;4.07;;;3.10;;
17784;SDS011;9016;53.582;10.062;2022-09-30T10:41:02;4.00;;;3.53;;
17784;SDS011;9016;53.582;10.062;2022-09-30T10:43:33;3.30;;;3.00;;
17784;SDS011;9016;53.582;10.062;2022-09-30T10:46:08;4.33;;;2.93;;
17784;SDS011;9016;53.582;10.062;2022-09-30T10:48:52;6.57;;;3.27;;
17784;SDS011;9016;53.582;10.062;2022-09-30T10:51:28;3.87;;;3.10;;
17784;SDS011;9016;53.582;10.062;2022-09-30T10:54:02;3.20;;;2.40;;
17784;SDS011;9016;53.582;10.062;2022-09-30T10:56:31;2.80;;;2.47;;
17784;SDS011;9016;53.582;10.062;2022-09-30T10:59:06;2.80;;;2.60;;
17784;SDS011;9016;53.582;10.062;2022-09-30T11:01:47;2.87;;;2.63;;
17784;SDS011;9016;53.582;10.062;2022-09-30T11:04:25;6.87;;;4.77;;
17784;SDS011;9016;53.582;10.062;2022-09-30T11:07:00;3.30;;;3.00;;
17784;SDS011;9016;53.582;10.062;2022-09-30T11:09:38;4.47;;;2.80;;
17784;SDS011;9016;53.582;10.062;2022-09-30T11:12:15;2.80;;;2.30;;
17784;SDS011;9016;53.582;10.062;2022-09-30T11:14:50;4.70;;;2.60;;
17784;SDS011;9016;53.582;10.062;2022-09-30T11:17:30;3.85;;;3.40;;
17784;SDS011;9016;53.582;10.062;2022-09-30T11:20:06;5.17;;;4.43;;
17784;SDS011;9016;53.582;10.062;2022-09-30T11:22:46;2.70;;;2.30;;
17784;SDS011;9016;53.582;10.062;2022-09-30T11:25:22;1.83;;;1.73;;
17784;SDS011;9016;53.582;10.062;2022-09-30T11:28:01;1.98;;;1.88;;
17784;SDS011;9016;53.582;10.062;2022-09-30T11:30:43;3.83;;;1.90;;
17784;SDS011;9016;53.582;10.062;2022-09-30T11:33:23;3.83;;;2.40;;
17784;SDS011;9016;53.582;10.062;2022-09-30T11:36:03;3.20;;;2.07;;
17784;SDS011;9016;53.582;10.062;2022-09-30T11:41:29;2.53;;;1.50;;
17784;SDS011;9016;53.582;10.062;2022-09-30T11:44:04;2.57;;;1.50;;
17784;SDS011;9016;53.582;10.062;2022-09-30T11:46:46;2.60;;;2.13;;
17784;SDS011;9016;53.582;10.062;2022-09-30T11:52:23;4.50;;;2.07;;
17784;SDS011;9016;53.582;10.062;2022-09-30T11:55:03;3.23;;;2.67;;
17784;SDS011;9016;53.582;10.062;2022-09-30T11:57:46;3.77;;;3.27;;
17784;SDS011;9016;53.582;10.062;2022-09-30T12:00:22;1.77;;;1.63;;
17784;SDS011;9016;53.582;10.062;2022-09-30T12:02:50;3.50;;;3.17;;
17784;SDS011;9016;53.582;10.062;2022-09-30T12:05:23;1.80;;;1.70;;
17784;SDS011;9016;53.582;10.062;2022-09-30T12:07:57;2.50;;;2.30;;
17784;SDS011;9016;53.582;10.062;2022-09-30T12:10:29;2.63;;;1.77;;
17784;SDS011;9016;53.582;10.062;2022-09-30T12:13:02;2.23;;;1.77;;
17784;SDS011;9016;53.582;10.062;2022-09-30T12:15:37;6.67;;;6.00;;
17784;SDS011;9016;53.582;10.062;2022-09-30T12:18:09;5.07;;;3.00;;
17784;SDS011;9016;53.582;10.062;2022-09-30T12:20:43;3.17;;;2.27;;
17784;SDS011;9016;53.582;10.062;2022-09-30T12:23:16;4.33;;;2.70;;
17784;SDS011;9016;53.582;10.062;2022-09-30T12:25:50;3.83;;;3.10;;
17784;SDS011;9016;53.582;10.062;2022-09-30T12:28:26;2.87;;;2.57;;
17784;SDS011;9016;53.582;10.062;2022-09-30T12:34:19;3.40;;;3.13;;
17784;SDS011;9016;53.582;10.062;2022-09-30T12:37:08;4.70;;;4.10;;
17784;SDS011;9016;53.582;10.062;2022-09-30T12:39:53;5.90;;;4.03;;
17784;SDS011;9016;53.582;10.062;2022-09-30T12:42:41;4.77;;;4.00;;
17784;SDS011;9016;53.582;10.062;2022-09-30T12:45:30;4.90;;;4.50;;
17784;SDS011;9016;53.582;10.062;2022-09-30T12:48:18;4.57;;;3.93;;
17784;SDS011;9016;53.582;10.062;2022-09-30T12:50:50;5.10;;;4.20;;
17784;SDS011;9016;53.582;10.062;2022-09-30T12:53:23;7.00;;;4.30;;
17784;SDS011;9016;53.582;10.062;2022-09-30T12:56:00;4.13;;;3.73;;
17784;SDS011;9016;53.582;10.062;2022-09-30T12:58:30;5.57;;;4.93;;
17784;SDS011;9016;53.582;10.062;2022-09-30T13:01:06;5.53;;;4.83;;
17784;SDS011;9016;53.582;10.062;2022-09-30T13:03:42;4.97;;;3.53;;
17784;SDS011;9016;53.582;10.062;2022-09-30T13:06:13;3.77;;;3.47;;
17784;SDS011;9016;53.582;10.062;2022-09-30T13:08:44;4.43;;;3.67;;
17784;SDS011;9016;53.582;10.062;2022-09-30T13:11:34;4.70;;;3.60;;
17784;SDS011;9016;53.582;10.062;2022-09-30T13:14:12;6.27;;;5.67;;
17784;SDS011;9016;53.582;10.062;2022-09-30T13:16:57;8.00;;;6.10;;
17784;SDS011;9016;53.582;10.062;2022-09-30T13:19:43;4.90;;;4.07;;
17784;SDS011;9016;53.582;10.062;2022-09-30T13:25:19;4.30;;;3.90;;
17784;SDS011;9016;53.582;10.062;2022-09-30T13:27:49;6.83;;;5.50;;
17784;SDS011;9016;53.582;10.062;2022-09-30T13:33:27;4.20;;;3.80;;
17784;SDS011;9016;53.582;10.062;2022-09-30T13:36:16;4.67;;;3.80;;
17784;SDS011;9016;53.582;10.062;2022-09-30T13:39:06;6.97;;;4.10;;
17784;SDS011;9016;53.582;10.062;2022-09-30T13:41:45;4.07;;;3.73;;
17784;SDS011;9016;53.582;10.062;2022-09-30T13:44:24;4.80;;;3.80;;
17784;SDS011;9016;53.582;10.062;2022-09-30T13:47:04;4.27;;;3.87;;
17784;SDS011;9016;53.582;10.062;2022-09-30T13:49:41;4.10;;;3.70;;
17784;SDS011;9016;53.582;10.062;2022-09-30T13:52:17;3.93;;;3.63;;
17784;SDS011;9016;53.582;10.062;2022-09-30T13:54:49;3.60;;;3.30;;
17784;SDS011;9016;53.582;10.062;2022-09-30T13:57:22;3.77;;;3.20;;
17784;SDS011;9016;53.582;10.062;2022-09-30T13:59:59;5.73;;;4.47;;
17784;SDS011;9016;53.582;10.062;2022-09-30T14:05:48;3.50;;;3.20;;
17784;SDS011;9016;53.582;10.062;2022-09-30T14:08:33;4.67;;;3.40;;
17784;SDS011;9016;53.582;10.062;2022-09-30T14:11:16;4.50;;;3.43;;
17784;SDS011;9016;53.582;10.062;2022-09-30T14:13:57;6.07;;;3.50;;
17784;SDS011;9016;53.582;10.062;2022-09-30T14:16:47;4.67;;;3.90;;
17784;SDS011;9016;53.582;10.062;2022-09-30T14:19:32;4.87;;;3.80;;
17784;SDS011;9016;53.582;10.062;2022-09-30T14:22:10;3.83;;;3.53;;
17784;SDS011;9016;53.582;10.062;2022-09-30T14:24:41;4.87;;;4.27;;
17784;SDS011;9016;53.582;10.062;2022-09-30T14:30:13;5.30;;;4.40;;
17784;SDS011;9016;53.582;10.062;2022-09-30T14:32:45;4.67;;;4.20;;
17784;SDS011;9016;53.582;10.062;2022-09-30T14:35:16;5.93;;;4.50;;
17784;SDS011;9016;53.582;10.062;2022-09-30T14:37:48;5.13;;;4.63;;
17784;SDS011;9016;53.582;10.062;2022-09-30T14:40:18;5.77;;;4.20;;
17784;SDS011;9016;53.582;10.062;2022-09-30T14:42:50;4.63;;;4.23;;
17784;SDS011;9016;53.582;10.062;2022-09-30T14:45:21;5.73;;;5.23;;
17784;SDS011;9016;53.582;10.062;2022-09-30T14:47:56;5.00;;;4.50;;
17784;SDS011;9016;53.582;10.062;2022-09-30T14:50:29;5.83;;;5.20;;
17784;SDS011;9016;53.582;10.062;2022-09-30T14:53:03;5.37;;;4.87;;
17784;SDS011;9016;53.582;10.062;2022-09-30T14:55:32;5.63;;;5.03;;
17784;SDS011;9016;53.582;10.062;2022-09-30T14:58:18;5.03;;;4.53;;
17784;SDS011;9016;53.582;10.062;2022-09-30T15:00:55;5.63;;;5.13;;
17784;SDS011;9016;53.582;10.062;2022-09-30T15:03:26;6.63;;;5.80;;
17784;SDS011;9016;53.582;10.062;2022-09-30T15:05:55;5.03;;;4.53;;
17784;SDS011;9016;53.582;10.062;2022-09-30T15:08:24;6.50;;;5.90;;
17784;SDS011;9016;53.582;10.062;2022-09-30T15:10:53;7.03;;;4.87;;
17784;SDS011;9016;53.582;10.062;2022-09-30T15:13:23;5.97;;;5.43;;
17784;SDS011;9016;53.582;10.062;2022-09-30T15:15:56;5.70;;;5.00;;
17784;SDS011;9016;53.582;10.062;2022-09-30T15:18:29;5.93;;;5.23;;
17784;SDS011;9016;53.582;10.062;2022-09-30T15:21:04;6.27;;;4.80;;
17784;SDS011;9016;53.582;10.062;2022-09-30T15:23:37;6.87;;;4.73;;
17784;SDS011;9016;53.582;10.062;2022-09-30T15:26:09;7.20;;;5.47;;
17784;SDS011;9016;53.582;10.062;2022-09-30T15:28:39;5.80;;;5.30;;
17784;SDS011;9016;53.582;10.062;2022-09-30T15:31:15;6.23;;;5.40;;
17784;SDS011;9016;53.582;10.062;2022-09-30T15:33:48;6.33;;;5.43;;
17784;SDS011;9016;53.582;10.062;2022-09-30T15:36:33;5.47;;;4.90;;
17784;SDS011;9016;53.582;10.062;2022-09-30T15:39:03;5.53;;;4.60;;
17784;SDS011;9016;53.582;10.062;2022-09-30T15:41:39;5.30;;;4.80;;
17784;SDS011;9016;53.582;10.062;2022-09-30T15:44:13;7.10;;;5.37;;
17784;SDS011;9016;53.582;10.062;2022-09-30T15:47:02;9.87;;;5.83;;
17784;SDS011;9016;53.582;10.062;2022-09-30T15:49:33;7.97;;;5.07;;
17784;SDS011;9016;53.582;10.062;2022-09-30T15:52:19;6.10;;;5.50;;
17784;SDS011;9016;53.582;10.062;2022-09-30T15:54:55;5.50;;;4.90;;
17784;SDS011;9016;53.582;10.062;2022-09-30T15:57:44;7.07;;;6.30;;
17784;SDS011;9016;53.582;10.062;2022-09-30T16:06:05;6.03;;;5.43;;
17784;SDS011;9016;53.582;10.062;2022-09-30T16:08:37;5.43;;;4.60;;
17784;SDS011;9016;53.582;10.062;2022-09-30T16:11:12;6.13;;;4.30;;